Terminal Aerodrome Forecast
Issued by NWS

Home | Current Version | Previous Version | Text Only | Print | Product List | Glossary On
Versions: 1 2 3 4 5 6 7 8 9 10 11 12 13 14 15 16 17 18 19 20 21 22 23 24 25 26 27 28 29 30 31 32 33 34 35 36 37 38 39 40 41 42 43 44 45 46 47 48 49 50
000
FTUS43 KABR 070318 AAX
TAFPIR
TAF AMD
KPIR 070318Z 0703/0724 12020G30KT P6SM VCTS BKN100CB OVC200
     FM070400 14015G21KT P6SM SHRA VCTS BKN100CB WS020/20035KT
      TEMPO 0704/0706 VRB40G70KT 4SM TSRAGR BR OVC040CB
     FM070700 14010G17KT P6SM BKN200 WS020/19040KT
     FM070900 15010KT P6SM FEW200
     FM072100 17012G18KT P6SM FEW250=

USA.gov is the U.S. government's official web portal to all federal, state and local government web resources and services.